sensor_id;sensor_type;location;lat;lon;timestamp;pressure;altitude;pressure_sealevel;temperature;humidity
3150;BME280;32503;47.748;8.960;2022-07-06T00:01:56;97375.31;;;21.12;53.43
3150;BME280;32503;47.748;8.960;2022-07-06T00:04:23;97409.91;;;21.40;53.41
3150;BME280;32503;47.748;8.960;2022-07-06T00:06:50;97415.88;;;21.35;53.43
3150;BME280;32503;47.748;8.960;2022-07-06T00:09:17;97413.13;;;21.35;53.45
3150;BME280;32503;47.748;8.960;2022-07-06T00:11:45;97415.16;;;21.31;53.29
3150;BME280;32503;47.748;8.960;2022-07-06T00:14:12;97406.53;;;21.29;53.38
3150;BME280;32503;47.748;8.960;2022-07-06T00:16:40;97418.34;;;21.26;53.54
3150;BME280;32503;47.748;8.960;2022-07-06T00:19:07;97408.75;;;21.07;53.77
3150;BME280;32503;47.748;8.960;2022-07-06T00:21:34;97415.53;;;20.98;53.87
3150;BME280;32503;47.748;8.960;2022-07-06T00:24:01;97411.66;;;20.92;53.78
3150;BME280;32503;47.748;8.960;2022-07-06T00:26:29;97416.06;;;20.86;53.27
3150;BME280;32503;47.748;8.960;2022-07-06T00:28:57;97416.47;;;20.85;52.89
3150;BME280;32503;47.748;8.960;2022-07-06T00:31:25;97421.16;;;20.84;52.66
3150;BME280;32503;47.748;8.960;2022-07-06T00:33:52;97417.28;;;20.81;52.53
3150;BME280;32503;47.748;8.960;2022-07-06T00:36:19;97417.28;;;20.81;52.72
3150;BME280;32503;47.748;8.960;2022-07-06T00:38:46;97417.31;;;20.78;52.58
3150;BME280;32503;47.748;8.960;2022-07-06T00:41:13;97417.38;;;20.74;52.49
3150;BME280;32503;47.748;8.960;2022-07-06T00:43:49;97416.66;;;20.67;52.89
3150;BME280;32503;47.748;8.960;2022-07-06T00:46:18;97417.88;;;20.62;53.20
3150;BME280;32503;47.748;8.960;2022-07-06T00:48:45;97416.69;;;20.59;53.16
3150;BME280;32503;47.748;8.960;2022-07-06T00:51:12;97419.09;;;20.54;53.47
3150;BME280;32503;47.748;8.960;2022-07-06T00:53:40;97411.28;;;20.49;53.63
3150;BME280;32503;47.748;8.960;2022-07-06T00:56:10;97422.69;;;20.51;53.61
3150;BME280;32503;47.748;8.960;2022-07-06T00:58:37;97415.25;;;20.48;53.87
3150;BME280;32503;47.748;8.960;2022-07-06T01:01:04;97416.78;;;20.49;54.17
3150;BME280;32503;47.748;8.960;2022-07-06T01:03:32;97415.22;;;20.51;54.48
3150;BME280;32503;47.748;8.960;2022-07-06T01:06:00;97423.91;;;20.42;54.75
3150;BME280;32503;47.748;8.960;2022-07-06T01:08:28;97405.19;;;20.30;55.20
3150;BME280;32503;47.748;8.960;2022-07-06T01:10:56;97420.06;;;20.33;54.87
3150;BME280;32503;47.748;8.960;2022-07-06T01:13:24;97426.34;;;20.33;54.74
3150;BME280;32503;47.748;8.960;2022-07-06T01:15:52;97412.28;;;20.24;55.03
3150;BME280;32503;47.748;8.960;2022-07-06T01:18:20;97409.97;;;20.19;55.10
3150;BME280;32503;47.748;8.960;2022-07-06T01:20:49;97415.50;;;20.15;55.38
3150;BME280;32503;47.748;8.960;2022-07-06T01:23:16;97419.50;;;20.07;55.59
3150;BME280;32503;47.748;8.960;2022-07-06T01:25:43;97411.75;;;19.95;55.70
3150;BME280;32503;47.748;8.960;2022-07-06T01:28:10;97404.75;;;19.86;55.99
3150;BME280;32503;47.748;8.960;2022-07-06T01:30:37;97417.63;;;19.93;55.90
3150;BME280;32503;47.748;8.960;2022-07-06T01:33:04;97423.16;;;19.86;55.84
3150;BME280;32503;47.748;8.960;2022-07-06T01:35:33;97415.38;;;19.77;56.11
3150;BME280;32503;47.748;8.960;2022-07-06T01:38:03;97412.25;;;19.72;56.26
3150;BME280;32503;47.748;8.960;2022-07-06T01:40:30;97410.69;;;19.70;55.93
3150;BME280;32503;47.748;8.960;2022-07-06T01:43:02;97406.78;;;19.72;56.01
3150;BME280;32503;47.748;8.960;2022-07-06T01:45:31;97409.53;;;19.72;56.12
3150;BME280;32503;47.748;8.960;2022-07-06T01:47:59;97373.63;;;19.44;56.35
3150;BME280;32503;47.748;8.960;2022-07-06T01:50:26;97396.28;;;19.59;56.04
3150;BME280;32503;47.748;8.960;2022-07-06T01:52:53;97397.03;;;19.60;55.90
3150;BME280;32503;47.748;8.960;2022-07-06T01:55:22;97409.63;;;19.57;56.18
3150;BME280;32503;47.748;8.960;2022-07-06T01:57:49;97406.88;;;19.54;55.91
3150;BME280;32503;47.748;8.960;2022-07-06T02:00:16;97409.63;;;19.50;56.06
3150;BME280;32503;47.748;8.960;2022-07-06T02:02:43;97408.84;;;19.53;55.93
3150;BME280;32503;47.748;8.960;2022-07-06T02:05:10;97407.31;;;19.45;56.15
3150;BME280;32503;47.748;8.960;2022-07-06T02:07:37;97409.69;;;19.36;55.85
3150;BME280;32503;47.748;8.960;2022-07-06T02:10:05;97399.56;;;19.32;55.83
3150;BME280;32503;47.748;8.960;2022-07-06T02:12:33;97401.91;;;19.30;55.84
3150;BME280;32503;47.748;8.960;2022-07-06T02:15:01;97401.91;;;19.30;56.11
3150;BME280;32503;47.748;8.960;2022-07-06T02:17:28;97404.28;;;19.25;56.05
3150;BME280;32503;47.748;8.960;2022-07-06T02:19:55;97402.75;;;19.20;56.20
3150;BME280;32503;47.748;8.960;2022-07-06T02:22:22;97403.13;;;19.22;56.14
3150;BME280;32503;47.748;8.960;2022-07-06T02:24:49;97403.91;;;19.19;56.15
3150;BME280;32503;47.748;8.960;2022-07-06T02:27:16;97394.94;;;19.15;56.07
3150;BME280;32503;47.748;8.960;2022-07-06T02:29:45;97396.88;;;19.11;55.83
3150;BME280;32503;47.748;8.960;2022-07-06T02:32:12;97402.00;;;19.05;55.92
3150;BME280;32503;47.748;8.960;2022-07-06T02:34:39;97400.84;;;19.03;56.10
3150;BME280;32503;47.748;8.960;2022-07-06T02:37:06;97404.78;;;18.98;56.12
3150;BME280;32503;47.748;8.960;2022-07-06T02:39:33;97410.66;;;18.97;56.30
3150;BME280;32503;47.748;8.960;2022-07-06T02:42:00;97405.94;;;18.93;56.40
3150;BME280;32503;47.748;8.960;2022-07-06T02:44:27;97405.94;;;18.93;56.69
3150;BME280;32503;47.748;8.960;2022-07-06T02:46:56;97409.09;;;18.92;56.83
3150;BME280;32503;47.748;8.960;2022-07-06T02:49:23;97408.34;;;18.84;57.17
3150;BME280;32503;47.748;8.960;2022-07-06T02:51:50;97416.53;;;18.81;57.17
3150;BME280;32503;47.748;8.960;2022-07-06T02:54:17;97430.22;;;18.81;57.25
3150;BME280;32503;47.748;8.960;2022-07-06T02:56:44;97432.59;;;18.82;57.16
3150;BME280;32503;47.748;8.960;2022-07-06T02:59:16;97415.38;;;18.85;57.16
3150;BME280;32503;47.748;8.960;2022-07-06T03:01:43;97425.16;;;18.83;57.11
3150;BME280;32503;47.748;8.960;2022-07-06T03:04:12;97431.84;;;18.82;56.78
3150;BME280;32503;47.748;8.960;2022-07-06T03:06:39;97428.25;;;18.81;56.63
3150;BME280;32503;47.748;8.960;2022-07-06T03:09:06;97421.25;;;18.80;56.42
3150;BME280;32503;47.748;8.960;2022-07-06T03:11:33;97427.50;;;18.84;56.30
3150;BME280;32503;47.748;8.960;2022-07-06T03:14:02;97433.34;;;18.79;56.06
3150;BME280;32503;47.748;8.960;2022-07-06T03:16:30;97437.31;;;18.71;55.95
3150;BME280;32503;47.748;8.960;2022-07-06T03:18:57;97437.31;;;18.67;56.03
3150;BME280;32503;47.748;8.960;2022-07-06T03:21:26;97448.28;;;18.64;56.05
3150;BME280;32503;47.748;8.960;2022-07-06T03:23:53;97439.63;;;18.62;55.94
3150;BME280;32503;47.748;8.960;2022-07-06T03:26:20;97437.31;;;18.64;55.72
3150;BME280;32503;47.748;8.960;2022-07-06T03:28:47;97439.25;;;18.67;55.52
3150;BME280;32503;47.748;8.960;2022-07-06T03:31:14;97425.19;;;18.61;55.52
3150;BME280;32503;47.748;8.960;2022-07-06T03:33:41;97436.50;;;18.67;55.65
3150;BME280;32503;47.748;8.960;2022-07-06T03:36:09;97443.56;;;18.64;55.64
3150;BME280;32503;47.748;8.960;2022-07-06T03:38:38;97435.72;;;18.66;55.63
3150;BME280;32503;47.748;8.960;2022-07-06T03:41:05;97432.63;;;18.64;55.75
3150;BME280;32503;47.748;8.960;2022-07-06T03:43:32;97423.22;;;18.62;55.73
3150;BME280;32503;47.748;8.960;2022-07-06T03:46:00;97436.09;;;18.72;55.66
3150;BME280;32503;47.748;8.960;2022-07-06T03:48:27;97436.50;;;18.74;55.64
3150;BME280;32503;47.748;8.960;2022-07-06T03:50:54;97431.00;;;18.74;55.50
3150;BME280;32503;47.748;8.960;2022-07-06T03:53:22;97434.56;;;18.71;55.66
3150;BME280;32503;47.748;8.960;2022-07-06T03:55:50;97430.63;;;18.72;55.58
3150;BME280;32503;47.748;8.960;2022-07-06T03:58:32;97435.72;;;18.70;55.48
3150;BME280;32503;47.748;8.960;2022-07-06T04:00:59;97432.22;;;18.73;55.40
3150;BME280;32503;47.748;8.960;2022-07-06T04:03:26;97438.84;;;18.79;55.14
3150;BME280;32503;47.748;8.960;2022-07-06T04:05:53;97434.94;;;18.91;55.08
3150;BME280;32503;47.748;8.960;2022-07-06T04:08:20;97445.88;;;18.98;54.57
3150;BME280;32503;47.748;8.960;2022-07-06T04:10:47;97443.88;;;19.06;54.47
3150;BME280;32503;47.748;8.960;2022-07-06T04:13:16;97446.19;;;19.18;54.61
3150;BME280;32503;47.748;8.960;2022-07-06T04:15:43;97448.13;;;19.28;54.59
3150;BME280;32503;47.748;8.960;2022-07-06T04:18:10;97439.47;;;19.33;54.43
3150;BME280;32503;47.748;8.960;2022-07-06T04:20:38;97442.53;;;19.50;54.45
3150;BME280;32503;47.748;8.960;2022-07-06T04:23:05;97446.41;;;19.60;54.31
3150;BME280;32503;47.748;8.960;2022-07-06T04:25:32;97449.47;;;19.73;53.95
3150;BME280;32503;47.748;8.960;2022-07-06T04:27:59;97439.63;;;19.89;53.72
3150;BME280;32503;47.748;8.960;2022-07-06T04:30:28;97437.53;;;20.04;53.45
3150;BME280;32503;47.748;8.960;2022-07-06T04:32:55;97442.97;;;20.12;53.29
3150;BME280;32503;47.748;8.960;2022-07-06T04:35:23;97443.66;;;20.26;52.70
3150;BME280;32503;47.748;8.960;2022-07-06T04:37:50;97449.88;;;20.34;52.23
3150;BME280;32503;47.748;8.960;2022-07-06T04:40:17;97454.88;;;20.43;51.96
3150;BME280;32503;47.748;8.960;2022-07-06T04:42:44;97454.72;;;20.61;51.88
3150;BME280;32503;47.748;8.960;2022-07-06T04:45:11;97447.94;;;20.76;51.53
3150;BME280;32503;47.748;8.960;2022-07-06T04:47:40;97454.06;;;20.95;50.93
3150;BME280;32503;47.748;8.960;2022-07-06T04:50:09;97462.22;;;21.02;50.51
3150;BME280;32503;47.748;8.960;2022-07-06T04:52:36;97448.03;;;21.07;50.49
3150;BME280;32503;47.748;8.960;2022-07-06T04:55:04;97454.09;;;21.26;50.36
3150;BME280;32503;47.748;8.960;2022-07-06T04:57:32;97452.75;;;21.41;49.95
3150;BME280;32503;47.748;8.960;2022-07-06T04:59:59;97447.84;;;21.56;49.64
3150;BME280;32503;47.748;8.960;2022-07-06T05:02:26;97451.56;;;21.73;49.01
3150;BME280;32503;47.748;8.960;2022-07-06T05:04:54;97455.03;;;21.77;48.89
3150;BME280;32503;47.748;8.960;2022-07-06T05:07:22;97459.25;;;21.85;48.83
3150;BME280;32503;47.748;8.960;2022-07-06T05:09:53;97463.00;;;21.99;48.22
3150;BME280;32503;47.748;8.960;2022-07-06T05:12:20;97463.06;;;22.22;48.09
3150;BME280;32503;47.748;8.960;2022-07-06T05:14:48;97459.91;;;22.47;47.50
3150;BME280;32503;47.748;8.960;2022-07-06T05:17:15;97474.97;;;22.66;47.15
3150;BME280;32503;47.748;8.960;2022-07-06T05:19:42;97461.28;;;22.83;46.40
3150;BME280;32503;47.748;8.960;2022-07-06T05:22:10;97459.47;;;22.96;46.13
3150;BME280;32503;47.748;8.960;2022-07-06T05:24:37;97465.94;;;23.09;45.92
3150;BME280;32503;47.748;8.960;2022-07-06T05:27:05;97439.19;;;23.06;45.91
3150;BME280;32503;47.748;8.960;2022-07-06T05:29:32;97464.59;;;23.38;45.92
3150;BME280;32503;47.748;8.960;2022-07-06T05:31:59;97470.13;;;23.58;45.68
3150;BME280;32503;47.748;8.960;2022-07-06T05:34:26;97472.34;;;23.83;45.27
3150;BME280;32503;47.748;8.960;2022-07-06T05:36:54;97470.22;;;24.07;44.62
3150;BME280;32503;47.748;8.960;2022-07-06T05:39:22;97464.72;;;24.23;44.37
3150;BME280;32503;47.748;8.960;2022-07-06T05:41:49;97471.81;;;24.41;43.84
3150;BME280;32503;47.748;8.960;2022-07-06T05:44:16;97475.09;;;24.52;42.93
3150;BME280;32503;47.748;8.960;2022-07-06T05:46:43;97478.75;;;24.66;42.17
3150;BME280;32503;47.748;8.960;2022-07-06T05:49:11;97485.44;;;24.81;42.04
3150;BME280;32503;47.748;8.960;2022-07-06T05:51:55;97479.00;;;25.01;42.00
3150;BME280;32503;47.748;8.960;2022-07-06T05:54:24;97475.00;;;25.18;41.44
3150;BME280;32503;47.748;8.960;2022-07-06T05:56:51;97483.81;;;25.29;41.26
3150;BME280;32503;47.748;8.960;2022-07-06T05:59:18;97474.78;;;25.42;40.66
3150;BME280;32503;47.748;8.960;2022-07-06T06:01:45;97480.22;;;25.58;40.28
3150;BME280;32503;47.748;8.960;2022-07-06T06:04:12;97481.81;;;25.72;39.90
3150;BME280;32503;47.748;8.960;2022-07-06T06:06:39;97486.28;;;25.95;39.60
3150;BME280;32503;47.748;8.960;2022-07-06T06:09:06;97487.97;;;26.05;39.32
3150;BME280;32503;47.748;8.960;2022-07-06T06:11:35;97473.84;;;25.74;38.38
3150;BME280;32503;47.748;8.960;2022-07-06T06:14:02;97487.25;;;25.76;39.19
3150;BME280;32503;47.748;8.960;2022-07-06T06:16:30;97497.47;;;25.49;39.18
3150;BME280;32503;47.748;8.960;2022-07-06T06:18:57;97493.81;;;25.40;39.58
3150;BME280;32503;47.748;8.960;2022-07-06T06:21:24;97492.81;;;25.17;39.48
3150;BME280;32503;47.748;8.960;2022-07-06T06:23:51;97493.25;;;25.15;40.10
3150;BME280;32503;47.748;8.960;2022-07-06T06:26:18;97495.25;;;25.15;40.74
3150;BME280;32503;47.748;8.960;2022-07-06T06:28:46;97498.22;;;25.08;40.69
3150;BME280;32503;47.748;8.960;2022-07-06T06:31:13;97495.25;;;25.15;40.11
3150;BME280;32503;47.748;8.960;2022-07-06T06:33:41;97491.00;;;25.27;39.65
3150;BME280;32503;47.748;8.960;2022-07-06T06:36:08;97494.69;;;25.37;39.94
3150;BME280;32503;47.748;8.960;2022-07-06T06:38:35;97501.53;;;25.74;39.40
3150;BME280;32503;47.748;8.960;2022-07-06T06:41:02;97491.06;;;26.07;38.35
3150;BME280;32503;47.748;8.960;2022-07-06T06:43:29;97492.84;;;26.27;36.65
3150;BME280;32503;47.748;8.960;2022-07-06T06:45:58;97491.91;;;26.56;36.83
3150;BME280;32503;47.748;8.960;2022-07-06T06:48:25;97491.91;;;26.81;37.17
3150;BME280;32503;47.748;8.960;2022-07-06T06:50:52;97498.78;;;27.12;36.44
3150;BME280;32503;47.748;8.960;2022-07-06T06:53:19;97493.63;;;27.23;34.72
3150;BME280;32503;47.748;8.960;2022-07-06T06:55:46;97490.56;;;27.43;34.49
3150;BME280;32503;47.748;8.960;2022-07-06T06:58:13;97486.81;;;27.59;34.76
3150;BME280;32503;47.748;8.960;2022-07-06T07:00:40;97485.97;;;27.71;33.94
3150;BME280;32503;47.748;8.960;2022-07-06T07:03:10;97487.50;;;27.94;34.21
3150;BME280;32503;47.748;8.960;2022-07-06T07:05:37;97482.34;;;28.15;33.50
3150;BME280;32503;47.748;8.960;2022-07-06T07:08:05;97482.69;;;28.26;33.20
3150;BME280;32503;47.748;8.960;2022-07-06T07:10:32;97477.88;;;28.27;33.34
3150;BME280;32503;47.748;8.960;2022-07-06T07:13:00;97487.66;;;28.41;33.20
3150;BME280;32503;47.748;8.960;2022-07-06T07:15:27;97491.25;;;28.50;32.73
3150;BME280;32503;47.748;8.960;2022-07-06T07:17:54;97491.13;;;28.54;32.63
3150;BME280;32503;47.748;8.960;2022-07-06T07:20:23;97486.81;;;28.62;32.86
3150;BME280;32503;47.748;8.960;2022-07-06T07:22:51;97485.59;;;28.72;32.47
3150;BME280;32503;47.748;8.960;2022-07-06T07:25:18;97486.25;;;28.86;32.26
3150;BME280;32503;47.748;8.960;2022-07-06T07:27:45;97485.78;;;29.06;32.07
3150;BME280;32503;47.748;8.960;2022-07-06T07:30:12;97485.00;;;29.05;31.16
3150;BME280;32503;47.748;8.960;2022-07-06T07:32:39;97485.16;;;29.11;32.26
3150;BME280;32503;47.748;8.960;2022-07-06T07:35:07;97481.16;;;29.21;32.39
3150;BME280;32503;47.748;8.960;2022-07-06T07:37:36;97481.00;;;29.34;31.90
3150;BME280;32503;47.748;8.960;2022-07-06T07:40:05;97477.25;;;29.56;31.28
3150;BME280;32503;47.748;8.960;2022-07-06T07:42:32;97457.28;;;29.57;30.51
3150;BME280;32503;47.748;8.960;2022-07-06T07:45:00;97478.44;;;29.82;30.60
3150;BME280;32503;47.748;8.960;2022-07-06T07:47:27;97473.50;;;29.86;30.94
3150;BME280;32503;47.748;8.960;2022-07-06T07:49:54;97478.25;;;29.95;30.70
3150;BME280;32503;47.748;8.960;2022-07-06T07:52:21;97464.84;;;29.84;30.55
3150;BME280;32503;47.748;8.960;2022-07-06T07:54:49;97476.00;;;29.66;31.11
3150;BME280;32503;47.748;8.960;2022-07-06T07:57:17;97466.91;;;29.56;31.49
3150;BME280;32503;47.748;8.960;2022-07-06T07:59:44;97467.53;;;29.51;31.44
3150;BME280;32503;47.748;8.960;2022-07-06T08:02:11;97471.41;;;29.44;32.00
3150;BME280;32503;47.748;8.960;2022-07-06T08:04:38;97479.44;;;29.15;31.54
3150;BME280;32503;47.748;8.960;2022-07-06T08:07:05;97472.16;;;28.99;32.15
3150;BME280;32503;47.748;8.960;2022-07-06T08:09:32;97469.25;;;28.84;32.43
3150;BME280;32503;47.748;8.960;2022-07-06T08:12:01;97468.59;;;28.80;32.96
3150;BME280;32503;47.748;8.960;2022-07-06T08:14:28;97464.44;;;28.84;32.85
3150;BME280;32503;47.748;8.960;2022-07-06T08:16:55;97475.25;;;28.91;31.71
3150;BME280;32503;47.748;8.960;2022-07-06T08:19:22;97472.94;;;28.90;32.27
3150;BME280;32503;47.748;8.960;2022-07-06T08:21:49;97469.66;;;28.64;31.81
3150;BME280;32503;47.748;8.960;2022-07-06T08:24:17;97465.81;;;28.70;32.09
3150;BME280;32503;47.748;8.960;2022-07-06T08:26:44;97478.19;;;28.97;32.56
3150;BME280;32503;47.748;8.960;2022-07-06T08:29:12;97476.66;;;29.33;32.98
3150;BME280;32503;47.748;8.960;2022-07-06T08:31:39;97477.41;;;29.52;31.61
3150;BME280;32503;47.748;8.960;2022-07-06T08:34:06;97473.19;;;29.66;31.16
3150;BME280;32503;47.748;8.960;2022-07-06T08:36:34;97475.53;;;29.67;31.29
3150;BME280;32503;47.748;8.960;2022-07-06T08:39:01;97473.19;;;29.66;31.58
3150;BME280;32503;47.748;8.960;2022-07-06T08:41:29;97474.47;;;29.46;32.49
3150;BME280;32503;47.748;8.960;2022-07-06T08:43:57;97477.88;;;29.04;31.45
3150;BME280;32503;47.748;8.960;2022-07-06T08:46:28;97474.75;;;28.65;31.64
3150;BME280;32503;47.748;8.960;2022-07-06T08:48:56;97478.19;;;28.79;32.12
3150;BME280;32503;47.748;8.960;2022-07-06T08:51:24;97475.09;;;28.95;33.23
3150;BME280;32503;47.748;8.960;2022-07-06T08:53:52;97475.09;;;28.77;32.17
3150;BME280;32503;47.748;8.960;2022-07-06T08:56:20;97479.47;;;28.46;32.32
3150;BME280;32503;47.748;8.960;2022-07-06T08:58:47;97481.53;;;28.05;33.45
3150;BME280;32503;47.748;8.960;2022-07-06T09:01:14;97487.81;;;27.96;33.60
3150;BME280;32503;47.748;8.960;2022-07-06T09:03:45;97490.00;;;28.02;34.14
3150;BME280;32503;47.748;8.960;2022-07-06T09:06:19;97479.59;;;28.24;33.30
3150;BME280;32503;47.748;8.960;2022-07-06T09:08:53;97485.03;;;28.46;33.65
3150;BME280;32503;47.748;8.960;2022-07-06T09:11:21;97487.91;;;28.65;33.67
3150;BME280;32503;47.748;8.960;2022-07-06T09:13:48;97485.28;;;28.89;33.12
3150;BME280;32503;47.748;8.960;2022-07-06T09:16:17;97488.22;;;28.76;32.17
3150;BME280;32503;47.748;8.960;2022-07-06T09:18:46;97487.69;;;28.50;32.71
3150;BME280;32503;47.748;8.960;2022-07-06T09:21:23;97488.22;;;28.85;33.37
3150;BME280;32503;47.748;8.960;2022-07-06T09:23:54;97479.41;;;28.87;31.88
3150;BME280;32503;47.748;8.960;2022-07-06T09:26:22;97482.53;;;29.07;32.32
3150;BME280;32503;47.748;8.960;2022-07-06T09:28:49;97485.78;;;29.43;31.94
3150;BME280;32503;47.748;8.960;2022-07-06T09:31:16;97486.56;;;29.53;31.45
3150;BME280;32503;47.748;8.960;2022-07-06T09:33:56;97485.13;;;29.76;31.82
3150;BME280;32503;47.748;8.960;2022-07-06T09:36:40;97478.78;;;29.84;31.18
3150;BME280;32503;47.748;8.960;2022-07-06T09:39:22;97495.09;;;29.21;31.19
3150;BME280;32503;47.748;8.960;2022-07-06T09:41:52;97486.53;;;28.88;31.25
3150;BME280;32503;47.748;8.960;2022-07-06T09:44:22;97493.81;;;28.26;32.19
3150;BME280;32503;47.748;8.960;2022-07-06T09:46:50;97489.75;;;28.18;32.21
3150;BME280;32503;47.748;8.960;2022-07-06T09:49:19;97487.63;;;28.22;32.73
3150;BME280;32503;47.748;8.960;2022-07-06T09:51:49;97491.81;;;27.95;32.86
3150;BME280;32503;47.748;8.960;2022-07-06T09:54:17;97492.81;;;28.11;33.10
3150;BME280;32503;47.748;8.960;2022-07-06T09:56:46;97482.47;;;28.52;32.66
3150;BME280;32503;47.748;8.960;2022-07-06T09:59:18;97492.88;;;28.70;31.38
3150;BME280;32503;47.748;8.960;2022-07-06T10:01:48;97496.00;;;29.00;31.69
3150;BME280;32503;47.748;8.960;2022-07-06T10:04:19;97496.97;;;29.24;32.46
3150;BME280;32503;47.748;8.960;2022-07-06T10:06:46;97497.41;;;29.32;31.19
3150;BME280;32503;47.748;8.960;2022-07-06T10:09:15;97495.19;;;28.99;30.91
3150;BME280;32503;47.748;8.960;2022-07-06T10:11:47;97483.75;;;29.06;31.92
3150;BME280;32503;47.748;8.960;2022-07-06T10:14:18;97491.94;;;29.10;31.20
3150;BME280;32503;47.748;8.960;2022-07-06T10:16:47;97490.59;;;29.42;32.15
3150;BME280;32503;47.748;8.960;2022-07-06T10:19:18;97486.03;;;29.73;31.63
3150;BME280;32503;47.748;8.960;2022-07-06T10:21:46;97483.88;;;29.77;31.15
3150;BME280;32503;47.748;8.960;2022-07-06T10:24:14;97488.69;;;29.76;30.40
3150;BME280;32503;47.748;8.960;2022-07-06T10:26:42;97473.25;;;30.09;30.81
3150;BME280;32503;47.748;8.960;2022-07-06T10:29:09;97478.13;;;29.90;31.04
3150;BME280;32503;47.748;8.960;2022-07-06T10:31:42;97474.03;;;30.09;30.46
3150;BME280;32503;47.748;8.960;2022-07-06T10:34:13;97479.16;;;30.01;30.32
3150;BME280;32503;47.748;8.960;2022-07-06T10:36:44;97478.38;;;30.01;29.96
3150;BME280;32503;47.748;8.960;2022-07-06T10:39:11;97474.28;;;30.20;30.93
3150;BME280;32503;47.748;8.960;2022-07-06T10:42:04;97473.25;;;30.42;30.53
3150;BME280;32503;47.748;8.960;2022-07-06T10:44:32;97470.50;;;30.33;29.72
3150;BME280;32503;47.748;8.960;2022-07-06T10:46:59;97460.97;;;30.15;30.29
3150;BME280;32503;47.748;8.960;2022-07-06T10:49:27;97471.81;;;29.80;30.57
3150;BME280;32503;47.748;8.960;2022-07-06T10:51:56;97464.25;;;29.62;31.09
3150;BME280;32503;47.748;8.960;2022-07-06T10:54:24;97466.63;;;29.36;31.49
3150;BME280;32503;47.748;8.960;2022-07-06T10:56:52;97457.16;;;29.33;32.24
3150;BME280;32503;47.748;8.960;2022-07-06T10:59:22;97454.09;;;29.12;32.13
3150;BME280;32503;47.748;8.960;2022-07-06T11:02:11;97454.38;;;28.87;32.94
3150;BME280;32503;47.748;8.960;2022-07-06T11:04:40;97444.50;;;28.95;32.05
3150;BME280;32503;47.748;8.960;2022-07-06T11:07:11;97454.22;;;28.81;32.57
3150;BME280;32503;47.748;8.960;2022-07-06T11:09:39;97441.69;;;28.67;32.21
3150;BME280;32503;47.748;8.960;2022-07-06T11:12:18;97440.16;;;28.94;32.75
3150;BME280;32503;47.748;8.960;2022-07-06T11:14:46;97442.47;;;29.33;32.41
3150;BME280;32503;47.748;8.960;2022-07-06T11:17:14;97438.91;;;29.41;31.51
3150;BME280;32503;47.748;8.960;2022-07-06T11:19:50;97444.81;;;29.34;31.26
3150;BME280;32503;47.748;8.960;2022-07-06T11:22:19;97431.66;;;28.88;33.12
3150;BME280;32503;47.748;8.960;2022-07-06T11:24:46;97427.94;;;29.01;31.84
3150;BME280;32503;47.748;8.960;2022-07-06T11:27:14;97423.63;;;28.63;32.75
3150;BME280;32503;47.748;8.960;2022-07-06T11:29:42;97422.25;;;28.86;31.91
3150;BME280;32503;47.748;8.960;2022-07-06T11:32:11;97408.31;;;29.23;33.45
3150;BME280;32503;47.748;8.960;2022-07-06T11:34:41;97415.31;;;29.79;32.83
3150;BME280;32503;47.748;8.960;2022-07-06T11:37:11;97408.91;;;30.21;30.98
3150;BME280;32503;47.748;8.960;2022-07-06T11:39:42;97418.31;;;30.57;31.57
3150;BME280;32503;47.748;8.960;2022-07-06T11:42:10;97410.09;;;30.78;30.50
3150;BME280;32503;47.748;8.960;2022-07-06T11:44:39;97408.28;;;30.90;29.70
3150;BME280;32503;47.748;8.960;2022-07-06T11:47:09;97400.34;;;30.97;29.34
3150;BME280;32503;47.748;8.960;2022-07-06T11:49:38;97406.03;;;31.18;30.01
3150;BME280;32503;47.748;8.960;2022-07-06T11:52:10;97404.53;;;31.47;29.03
3150;BME280;32503;47.748;8.960;2022-07-06T11:54:40;97395.94;;;31.65;27.72
3150;BME280;32503;47.748;8.960;2022-07-06T11:57:09;97390.03;;;31.78;26.53
3150;BME280;32503;47.748;8.960;2022-07-06T11:59:39;97386.81;;;31.65;26.63
3150;BME280;32503;47.748;8.960;2022-07-06T12:02:08;97389.59;;;31.65;27.37
3150;BME280;32503;47.748;8.960;2022-07-06T12:04:39;97385.91;;;31.29;27.78
3150;BME280;32503;47.748;8.960;2022-07-06T12:07:08;97397.09;;;31.44;28.26
3150;BME280;32503;47.748;8.960;2022-07-06T12:09:40;97388.81;;;31.34;29.32
3150;BME280;32503;47.748;8.960;2022-07-06T12:12:09;97380.44;;;31.19;29.91
3150;BME280;32503;47.748;8.960;2022-07-06T12:14:38;97389.78;;;31.31;29.34
3150;BME280;32503;47.748;8.960;2022-07-06T12:17:07;97390.56;;;31.47;28.98
3150;BME280;32503;47.748;8.960;2022-07-06T12:19:36;97394.97;;;31.68;27.24
3150;BME280;32503;47.748;8.960;2022-07-06T12:22:04;97385.56;;;31.51;26.94
3150;BME280;32503;47.748;8.960;2022-07-06T12:24:33;97385.31;;;31.40;27.88
3150;BME280;32503;47.748;8.960;2022-07-06T12:27:12;97386.69;;;31.44;29.28
3150;BME280;32503;47.748;8.960;2022-07-06T12:29:40;97382.09;;;31.56;27.78
3150;BME280;32503;47.748;8.960;2022-07-06T12:32:14;97378.03;;;31.57;27.18
3150;BME280;32503;47.748;8.960;2022-07-06T12:34:42;97379.38;;;31.47;27.60
3150;BME280;32503;47.748;8.960;2022-07-06T12:37:10;97380.31;;;31.73;28.59
3150;BME280;32503;47.748;8.960;2022-07-06T12:39:42;97382.03;;;31.86;28.20
3150;BME280;32503;47.748;8.960;2022-07-06T12:42:14;97380.63;;;31.96;28.11
3150;BME280;32503;47.748;8.960;2022-07-06T12:44:43;97374.84;;;32.15;27.94
3150;BME280;32503;47.748;8.960;2022-07-06T12:47:10;97369.78;;;32.19;27.67
3150;BME280;32503;47.748;8.960;2022-07-06T12:49:38;97372.19;;;32.26;27.21
3150;BME280;32503;47.748;8.960;2022-07-06T12:52:10;97364.28;;;32.24;27.13
3150;BME280;32503;47.748;8.960;2022-07-06T12:54:42;97363.56;;;32.29;27.05
3150;BME280;32503;47.748;8.960;2022-07-06T12:57:13;97367.44;;;32.32;26.84
3150;BME280;32503;47.748;8.960;2022-07-06T12:59:43;97365.75;;;32.20;27.56
3150;BME280;32503;47.748;8.960;2022-07-06T13:02:20;97362.81;;;32.29;27.11
3150;BME280;32503;47.748;8.960;2022-07-06T13:04:55;97365.59;;;32.29;27.19
3150;BME280;32503;47.748;8.960;2022-07-06T13:07:24;97355.41;;;32.26;26.45
3150;BME280;32503;47.748;8.960;2022-07-06T13:09:51;97353.50;;;31.82;26.79
3150;BME280;32503;47.748;8.960;2022-07-06T13:12:20;97368.75;;;31.81;27.79
3150;BME280;32503;47.748;8.960;2022-07-06T13:14:48;97349.53;;;31.53;27.78
3150;BME280;32503;47.748;8.960;2022-07-06T13:17:15;97355.19;;;31.59;28.48